createdAt,value
2022-10-18T00:02:02.174Z,41.90
2022-10-18T00:04:36.970Z,40.73
2022-10-18T00:09:56.835Z,44.43
2022-10-18T00:15:13.356Z,43.80
2022-10-18T00:17:47.301Z,43.33
2022-10-18T00:20:17.067Z,44.30
2022-10-18T00:22:46.603Z,44.27
2022-10-18T00:25:21.263Z,39.03
2022-10-18T00:28:04.844Z,41.87
2022-10-18T00:33:19.897Z,39.80
2022-10-18T00:35:53.250Z,40.27
2022-10-18T00:38:26.283Z,39.67
2022-10-18T00:40:54.948Z,39.70
2022-10-18T00:43:23.175Z,41.20
2022-10-18T00:45:58.237Z,41.03
2022-10-18T00:48:48.685Z,42.17
2022-10-18T00:51:23.027Z,40.17
2022-10-18T00:53:56.324Z,42.23
2022-10-18T00:56:45.305Z,42.90
2022-10-18T00:59:22.279Z,45.10
2022-10-18T01:01:56.610Z,44.63
2022-10-18T01:04:32.444Z,39.50
2022-10-18T01:07:25.970Z,40.03
2022-10-18T01:10:05.346Z,43.67
2022-10-18T01:12:50.863Z,40.97
2022-10-18T01:15:51.954Z,41.10
2022-10-18T01:18:31.967Z,40.83
2022-10-18T01:21:30.541Z,41.17
2022-10-18T01:24:47.637Z,41.10
2022-10-18T01:27:51.762Z,43.47
2022-10-18T01:31:00.046Z,44.30
2022-10-18T01:33:54.869Z,42.07
2022-10-18T01:36:30.183Z,42.13
2022-10-18T01:39:05.800Z,45.67
2022-10-18T01:41:38.463Z,44.77
2022-10-18T01:44:11.946Z,45.33
2022-10-18T01:46:44.153Z,46.53
2022-10-18T01:49:21.553Z,44.43
2022-10-18T01:51:54.110Z,47.10
2022-10-18T01:54:30.404Z,45.13
2022-10-18T01:57:09.525Z,46.03
2022-10-18T02:00:13.034Z,43.70
2022-10-18T02:03:04.689Z,42.53
2022-10-18T02:05:50.793Z,45.60
2022-10-18T02:08:31.815Z,43.73
2022-10-18T02:11:05.516Z,47.07
2022-10-18T02:16:32.613Z,45.03
2022-10-18T02:19:30.859Z,44.97
2022-10-18T02:22:02.074Z,41.93
2022-10-18T02:24:39.296Z,45.33
2022-10-18T02:27:21.925Z,45.40
2022-10-18T02:29:51.806Z,48.07
2022-10-18T02:32:33.445Z,46.80
2022-10-18T02:35:15.615Z,43.17
2022-10-18T02:37:46.699Z,43.40
2022-10-18T02:40:15.819Z,49.70
2022-10-18T02:42:49.939Z,49.23
2022-10-18T02:45:25.543Z,44.27
2022-10-18T02:47:56.850Z,47.43
2022-10-18T02:50:42.837Z,51.47
2022-10-18T02:53:27.604Z,48.00
2022-10-18T02:56:03.940Z,48.63
2022-10-18T02:58:32.827Z,49.30
2022-10-18T03:01:07.338Z,50.60
2022-10-18T03:03:41.679Z,51.83
2022-10-18T03:06:11.471Z,51.97
2022-10-18T03:08:41.297Z,61.93
2022-10-18T03:11:17.059Z,61.33
2022-10-18T03:13:51.388Z,73.00
2022-10-18T03:16:33.783Z,64.33
2022-10-18T03:19:02.486Z,52.80
2022-10-18T03:21:32.430Z,59.67
2022-10-18T03:24:04.146Z,57.63
2022-10-18T03:26:35.330Z,59.03
2022-10-18T03:29:04.350Z,63.03
2022-10-18T03:31:33.879Z,58.33
2022-10-18T03:34:18.719Z,63.13
2022-10-18T03:36:52.766Z,59.13
2022-10-18T03:39:27.568Z,56.13
2022-10-18T03:42:07.405Z,71.43
2022-10-18T03:44:37.092Z,57.93
2022-10-18T03:47:09.811Z,63.77
2022-10-18T03:49:41.717Z,59.13
2022-10-18T03:52:11.341Z,69.33
2022-10-18T03:54:46.022Z,59.67
2022-10-18T03:57:29.729Z,56.17
2022-10-18T04:00:21.787Z,56.20
2022-10-18T04:03:01.803Z,67.10
2022-10-18T04:05:31.208Z,51.07
2022-10-18T04:08:08.554Z,56.77
2022-10-18T04:10:40.025Z,47.93
2022-10-18T04:13:11.238Z,47.93
2022-10-18T04:15:46.088Z,61.57
2022-10-18T04:18:14.697Z,53.90
2022-10-18T04:20:52.473Z,58.47
2022-10-18T04:23:23.791Z,51.23
2022-10-18T04:26:04.366Z,50.60
2022-10-18T04:28:35.041Z,49.83
2022-10-18T04:31:07.396Z,47.13
2022-10-18T04:33:42.466Z,45.63
2022-10-18T04:36:13.398Z,46.37
2022-10-18T04:42:01.426Z,41.47
2022-10-18T04:44:31.352Z,40.70
2022-10-18T04:47:10.547Z,46.73
2022-10-18T04:49:40.947Z,51.73
2022-10-18T04:52:10.578Z,42.33
2022-10-18T04:54:41.613Z,47.83
2022-10-18T04:57:23.496Z,49.87
2022-10-18T05:00:04.078Z,41.93
2022-10-18T05:02:34.755Z,43.03
2022-10-18T05:05:13.213Z,41.60
2022-10-18T05:07:51.518Z,36.47
2022-10-18T05:10:24.597Z,40.33
2022-10-18T05:12:59.076Z,39.13
2022-10-18T05:15:33.552Z,40.70
2022-10-18T05:18:04.005Z,36.40
2022-10-18T05:20:34.003Z,39.70
2022-10-18T05:23:11.475Z,40.93
2022-10-18T05:25:47.398Z,45.70
2022-10-18T05:28:38.865Z,42.83
2022-10-18T05:31:12.688Z,43.97
2022-10-18T05:33:42.283Z,43.63
2022-10-18T05:36:13.424Z,48.37
2022-10-18T05:41:37.414Z,41.37
2022-10-18T05:44:21.672Z,44.87
2022-10-18T05:46:52.583Z,42.20
2022-10-18T05:52:08.927Z,45.43
2022-10-18T05:54:38.202Z,47.23
2022-10-18T05:57:13.867Z,35.93
2022-10-18T05:59:46.481Z,38.10
2022-10-18T06:02:22.288Z,37.70
2022-10-18T06:04:56.852Z,41.67
2022-10-18T06:07:26.918Z,40.73
2022-10-18T06:09:57.172Z,42.60
2022-10-18T06:12:36.002Z,36.87
2022-10-18T06:15:08.068Z,35.07
2022-10-18T06:17:39.543Z,35.77
2022-10-18T06:20:11.677Z,38.60
2022-10-18T06:22:40.316Z,37.07
2022-10-18T06:27:55.904Z,35.40
2022-10-18T06:30:34.978Z,33.07
2022-10-18T06:33:08.904Z,34.47
2022-10-18T06:35:38.211Z,35.87
2022-10-18T06:38:08.015Z,29.20
2022-10-18T06:40:38.283Z,33.13
2022-10-18T06:43:20.635Z,35.07
2022-10-18T06:45:52.520Z,34.50
2022-10-18T06:48:27.640Z,28.17
2022-10-18T06:50:59.629Z,31.53
2022-10-18T06:53:34.406Z,32.10
2022-10-18T06:56:07.611Z,31.87
2022-10-18T06:58:39.451Z,31.40
2022-10-18T07:01:14.898Z,25.53
2022-10-18T07:03:54.198Z,29.57
2022-10-18T07:06:26.004Z,27.83
2022-10-18T07:08:57.182Z,26.13
2022-10-18T07:14:20.507Z,25.83
2022-10-18T07:16:50.435Z,30.93
2022-10-18T07:19:38.430Z,29.40
2022-10-18T07:22:09.034Z,29.47
2022-10-18T07:24:53.269Z,27.30
2022-10-18T07:27:41.430Z,27.00
2022-10-18T07:30:12.700Z,23.20
2022-10-18T07:32:50.456Z,23.30
2022-10-18T07:35:37.667Z,24.93
2022-10-18T07:38:13.444Z,26.40
2022-10-18T07:40:49.796Z,25.03
2022-10-18T07:43:26.088Z,23.10
2022-10-18T07:46:01.015Z,28.90
2022-10-18T07:48:40.269Z,25.90
2022-10-18T07:51:09.455Z,26.43
2022-10-18T07:53:39.405Z,23.87
2022-10-18T07:56:17.003Z,27.63
2022-10-18T07:58:46.240Z,23.73
2022-10-18T08:01:20.409Z,20.83
2022-10-18T08:03:55.247Z,21.97
2022-10-18T08:09:23.683Z,22.07
2022-10-18T08:11:54.053Z,19.43
2022-10-18T08:14:28.749Z,21.73
2022-10-18T08:17:04.986Z,18.57
2022-10-18T08:22:24.273Z,18.37
2022-10-18T08:25:11.621Z,18.50
2022-10-18T08:28:37.877Z,18.63
2022-10-18T08:31:14.169Z,17.13
2022-10-18T08:33:49.209Z,18.50
2022-10-18T08:36:19.543Z,18.37
2022-10-18T08:38:55.394Z,17.60
2022-10-18T08:41:53.917Z,16.93
2022-10-18T08:47:17.039Z,19.40
2022-10-18T08:49:54.867Z,18.40
2022-10-18T08:52:34.422Z,17.77
2022-10-18T08:55:12.278Z,17.37
2022-10-18T08:57:41.598Z,18.57
2022-10-18T09:00:38.942Z,17.60
2022-10-18T09:03:25.598Z,16.93
2022-10-18T09:06:22.700Z,15.60
2022-10-18T09:09:24.006Z,15.33
2022-10-18T09:15:14.889Z,15.17
2022-10-18T09:17:59.820Z,13.97
2022-10-18T09:20:36.629Z,12.10
2022-10-18T09:23:20.076Z,12.10
2022-10-18T09:25:50.915Z,10.50
2022-10-18T09:28:39.285Z,9.33
2022-10-18T09:31:17.247Z,9.37
2022-10-18T09:33:53.873Z,8.90
2022-10-18T09:36:25.692Z,9.23
2022-10-18T09:39:00.760Z,8.47
2022-10-18T09:41:37.431Z,8.27
2022-10-18T09:44:14.474Z,8.27
2022-10-18T09:46:47.746Z,7.97
2022-10-18T09:49:20.792Z,6.87
2022-10-18T09:51:51.879Z,6.77
2022-10-18T09:54:31.160Z,6.60
2022-10-18T09:57:05.500Z,6.40
2022-10-18T09:59:42.219Z,6.07
2022-10-18T10:02:16.029Z,5.87
2022-10-18T10:04:44.262Z,5.73
2022-10-18T10:07:17.321Z,5.30
2022-10-18T10:09:49.801Z,6.23
2022-10-18T10:12:31.730Z,4.73
2022-10-18T10:15:20.458Z,4.27
2022-10-18T10:17:58.566Z,4.33
2022-10-18T10:20:36.216Z,3.90
2022-10-18T10:23:10.728Z,3.47
2022-10-18T10:25:42.510Z,2.83
2022-10-18T10:28:18.157Z,3.10
2022-10-18T10:30:46.469Z,2.80
2022-10-18T10:33:34.266Z,3.20
2022-10-18T10:36:05.400Z,3.50
2022-10-18T10:38:34.107Z,2.70
2022-10-18T10:41:03.683Z,2.40
2022-10-18T10:43:39.197Z,2.67
2022-10-18T10:46:11.102Z,2.80
2022-10-18T10:48:50.451Z,2.73
2022-10-18T10:51:30.408Z,2.17
2022-10-18T10:54:04.599Z,2.13
2022-10-18T10:56:37.446Z,2.13
2022-10-18T10:59:17.225Z,2.70
2022-10-18T11:01:47.739Z,2.60
2022-10-18T11:04:28.810Z,2.00
2022-10-18T11:07:12.468Z,2.00
2022-10-18T11:09:53.146Z,2.00
2022-10-18T11:12:35.317Z,2.10
2022-10-18T11:15:22.320Z,1.67
2022-10-18T11:18:05.867Z,1.90
2022-10-18T11:20:38.484Z,1.83
2022-10-18T11:23:09.119Z,2.07
2022-10-18T11:26:02.430Z,1.57
2022-10-18T11:28:52.790Z,1.80
2022-10-18T11:31:31.415Z,1.80
2022-10-18T11:34:22.184Z,1.73
2022-10-18T11:37:23.003Z,2.20
2022-10-18T11:39:57.743Z,2.03
2022-10-18T11:42:39.140Z,1.77
2022-10-18T11:45:28.620Z,2.27
2022-10-18T11:48:06.764Z,2.20
2022-10-18T11:50:41.776Z,1.70
2022-10-18T11:53:24.233Z,2.03
2022-10-18T11:56:03.510Z,1.67
2022-10-18T11:58:50.105Z,1.53
2022-10-18T12:01:29.073Z,2.07
2022-10-18T12:04:04.742Z,2.90
2022-10-18T12:06:38.811Z,2.30
2022-10-18T12:09:17.994Z,2.00
2022-10-18T12:11:55.756Z,1.83
2022-10-18T12:14:29.364Z,1.70
2022-10-18T12:17:39.713Z,1.70
2022-10-18T12:19:56.655Z,1.77
2022-10-18T12:22:30.406Z,1.90
2022-10-18T12:24:58.671Z,2.50
2022-10-18T12:27:38.955Z,1.90
2022-10-18T12:30:20.112Z,2.37
2022-10-18T12:33:03.322Z,2.30
2022-10-18T12:35:53.887Z,2.10
2022-10-18T12:38:26.989Z,2.03
2022-10-18T12:40:56.623Z,1.57
2022-10-18T12:43:27.494Z,1.73
2022-10-18T12:45:58.609Z,1.83
2022-10-18T12:48:38.724Z,1.93
2022-10-18T12:51:15.233Z,1.70
2022-10-18T12:53:45.249Z,1.80
2022-10-18T12:56:42.064Z,1.80
2022-10-18T12:59:49.730Z,1.80
2022-10-18T13:02:36.051Z,1.70
2022-10-18T13:05:56.318Z,2.03
2022-10-18T13:08:42.772Z,2.10
2022-10-18T13:11:35.946Z,2.20
2022-10-18T13:14:35.507Z,2.10
2022-10-18T13:17:16.187Z,1.67
2022-10-18T13:20:20.486Z,1.90
2022-10-18T13:23:09.378Z,1.87
2022-10-18T13:25:52.312Z,1.60
2022-10-18T13:28:30.828Z,1.70
2022-10-18T13:31:11.668Z,1.63
2022-10-18T13:33:41.710Z,2.40
2022-10-18T13:36:25.596Z,1.50
2022-10-18T13:39:04.933Z,1.67
2022-10-18T13:42:14.987Z,1.90
2022-10-18T13:44:46.371Z,1.90
2022-10-18T13:47:16.932Z,1.70
2022-10-18T13:53:36.838Z,2.20
2022-10-18T13:56:30.835Z,2.37
2022-10-18T13:59:18.436Z,2.40
2022-10-18T14:02:04.728Z,1.87
2022-10-18T14:04:48.919Z,2.20
2022-10-18T14:07:19.421Z,2.37
2022-10-18T14:09:54.966Z,2.03
2022-10-18T14:12:30.527Z,1.83
2022-10-18T14:15:05.687Z,2.80
2022-10-18T14:17:42.690Z,2.50
2022-10-18T14:20:27.209Z,2.53
2022-10-18T14:23:06.057Z,2.10
2022-10-18T14:25:36.886Z,2.10
2022-10-18T14:28:14.176Z,1.90
2022-10-18T14:30:57.671Z,1.60
2022-10-18T14:33:32.962Z,2.10
2022-10-18T14:36:09.203Z,2.20
2022-10-18T14:38:49.148Z,2.10
2022-10-18T14:41:21.713Z,1.90
2022-10-18T14:43:50.827Z,1.90
2022-10-18T14:46:25.899Z,2.13
2022-10-18T14:48:58.126Z,2.07
2022-10-18T14:51:26.964Z,2.10
2022-10-18T14:53:56.997Z,2.13
2022-10-18T14:56:29.211Z,2.20
2022-10-18T14:58:59.854Z,2.07
2022-10-18T15:01:32.359Z,2.00
2022-10-18T15:04:06.478Z,1.83
2022-10-18T15:06:35.201Z,1.87
2022-10-18T15:09:05.619Z,2.20
2022-10-18T15:11:34.171Z,2.17
2022-10-18T15:14:06.758Z,2.63
2022-10-18T15:16:36.007Z,2.57
2022-10-18T15:19:08.186Z,2.27
2022-10-18T15:21:37.316Z,2.43
2022-10-18T15:24:27.620Z,2.20
2022-10-18T15:26:58.923Z,1.87
2022-10-18T15:29:32.308Z,1.77
2022-10-18T15:32:12.405Z,2.03
2022-10-18T15:34:41.929Z,2.27
2022-10-18T15:37:24.805Z,2.50
2022-10-18T15:40:38.470Z,2.40
2022-10-18T15:43:34.585Z,2.07
2022-10-18T15:46:06.686Z,1.80
2022-10-18T15:48:38.701Z,1.93
2022-10-18T15:51:13.868Z,2.03
2022-10-18T15:53:47.373Z,2.57
2022-10-18T15:56:33.210Z,2.43
2022-10-18T15:59:04.928Z,1.67
2022-10-18T16:01:39.579Z,2.17
2022-10-18T16:04:15.223Z,1.90
2022-10-18T16:06:44.771Z,1.97
2022-10-18T16:09:17.630Z,1.70
2022-10-18T16:11:47.004Z,2.20
2022-10-18T16:14:15.109Z,1.90
2022-10-18T16:16:43.204Z,1.80
2022-10-18T16:19:15.402Z,2.07
2022-10-18T16:21:45.781Z,2.10
2022-10-18T16:24:13.998Z,2.30
2022-10-18T16:26:42.385Z,1.70
2022-10-18T16:29:16.461Z,1.70
2022-10-18T16:31:46.559Z,1.70
2022-10-18T16:34:14.805Z,1.63
2022-10-18T16:36:44.864Z,1.83
2022-10-18T16:39:16.947Z,1.87
2022-10-18T16:41:45.218Z,1.53
2022-10-18T16:44:14.042Z,1.20
2022-10-18T16:46:42.495Z,1.53
2022-10-18T16:51:55.470Z,1.40
2022-10-18T16:54:23.909Z,1.83
2022-10-18T16:56:52.001Z,1.60
2022-10-18T16:59:29.633Z,1.93
2022-10-18T17:01:58.163Z,2.00
2022-10-18T17:04:26.372Z,1.40
2022-10-18T17:06:58.442Z,1.90
2022-10-18T17:09:26.853Z,2.73
2022-10-18T17:11:55.006Z,1.63
2022-10-18T17:14:23.198Z,1.50
2022-10-18T17:16:54.816Z,1.57
2022-10-18T17:19:24.258Z,2.10
2022-10-18T17:21:52.409Z,1.87
2022-10-18T17:24:21.867Z,1.70
2022-10-18T17:26:49.982Z,1.63
2022-10-18T17:29:18.042Z,2.40
2022-10-18T17:31:46.171Z,1.80
2022-10-18T17:34:21.162Z,2.60
2022-10-18T17:36:50.434Z,3.73
2022-10-18T17:39:18.477Z,3.50
2022-10-18T17:41:48.012Z,2.50
2022-10-18T17:44:16.309Z,2.17
2022-10-18T17:46:44.396Z,2.03
2022-10-18T17:49:13.977Z,2.00
2022-10-18T17:51:42.886Z,1.83
2022-10-18T17:54:11.254Z,1.93
2022-10-18T17:56:41.148Z,1.60
2022-10-18T17:59:10.864Z,1.47
2022-10-18T18:01:39.358Z,1.80
2022-10-18T18:04:07.843Z,2.07
2022-10-18T18:06:39.057Z,1.67
2022-10-18T18:09:14.726Z,2.03
2022-10-18T18:11:45.008Z,1.77
2022-10-18T18:14:16.033Z,2.10
2022-10-18T18:16:46.606Z,1.90
2022-10-18T18:19:17.560Z,2.30
2022-10-18T18:21:46.103Z,2.30
2022-10-18T18:24:15.593Z,2.13
2022-10-18T18:26:44.386Z,1.90
2022-10-18T18:29:15.951Z,2.10
2022-10-18T18:31:44.047Z,3.57
2022-10-18T18:34:12.553Z,2.63
2022-10-18T18:36:41.345Z,2.53
2022-10-18T18:39:09.859Z,2.00
2022-10-18T18:41:38.665Z,2.07
2022-10-18T18:44:07.672Z,1.90
2022-10-18T18:46:39.097Z,2.10
2022-10-18T18:49:08.414Z,1.80
2022-10-18T18:51:39.723Z,1.80
2022-10-18T18:54:08.808Z,1.80
2022-10-18T18:56:37.491Z,2.00
2022-10-18T18:59:06.855Z,1.70
2022-10-18T19:01:39.027Z,2.13
2022-10-18T19:04:09.426Z,2.07
2022-10-18T19:06:40.118Z,1.87
2022-10-18T19:09:13.101Z,2.37
2022-10-18T19:11:41.542Z,2.17
2022-10-18T19:14:09.737Z,2.00
2022-10-18T19:16:41.052Z,1.97
2022-10-18T19:19:12.820Z,1.80
2022-10-18T19:21:43.476Z,2.17
2022-10-18T19:24:11.912Z,1.70
2022-10-18T19:26:44.783Z,1.87
2022-10-18T19:29:16.198Z,1.90
2022-10-18T19:31:46.650Z,2.60
2022-10-18T19:34:16.366Z,1.90
2022-10-18T19:36:46.555Z,2.80
2022-10-18T19:39:20.296Z,3.07
2022-10-18T19:41:50.626Z,3.57
2022-10-18T19:44:20.455Z,3.13
2022-10-18T19:46:50.742Z,2.73
2022-10-18T19:49:19.073Z,2.30
2022-10-18T19:51:48.012Z,1.83
2022-10-18T19:54:17.073Z,2.20
2022-10-18T19:56:45.747Z,2.30
2022-10-18T19:59:15.910Z,2.47
2022-10-18T20:01:44.751Z,2.10
2022-10-18T20:04:15.442Z,2.00
2022-10-18T20:06:45.465Z,2.00
2022-10-18T20:09:19.344Z,2.17
2022-10-18T20:11:49.010Z,2.17
2022-10-18T20:14:17.260Z,3.10
2022-10-18T20:16:45.538Z,2.13
2022-10-18T20:19:15.156Z,1.93
2022-10-18T20:21:43.322Z,2.27
2022-10-18T20:24:12.771Z,2.33
2022-10-18T20:26:41.061Z,2.00
2022-10-18T20:29:09.337Z,2.07
2022-10-18T20:31:39.159Z,2.60
2022-10-18T20:34:10.984Z,2.20
2022-10-18T20:36:41.033Z,2.30
2022-10-18T20:39:09.677Z,2.40
2022-10-18T20:41:41.060Z,2.00
2022-10-18T20:44:14.336Z,2.40
2022-10-18T20:46:43.501Z,2.37
2022-10-18T20:49:15.045Z,1.90
2022-10-18T20:51:44.580Z,2.07
2022-10-18T20:54:13.460Z,1.93
2022-10-18T20:56:41.661Z,2.20
2022-10-18T20:59:11.441Z,1.87
2022-10-18T21:01:40.744Z,2.23
2022-10-18T21:04:11.593Z,2.30
2022-10-18T21:06:42.761Z,2.10
2022-10-18T21:09:14.497Z,2.30
2022-10-18T21:11:44.887Z,2.20
2022-10-18T21:14:15.184Z,1.90
2022-10-18T21:16:43.995Z,2.20
2022-10-18T21:19:15.062Z,2.30
2022-10-18T21:21:46.499Z,2.00
2022-10-18T21:24:20.648Z,1.90
2022-10-18T21:26:49.535Z,2.27
2022-10-18T21:29:21.988Z,3.40
2022-10-18T21:31:54.256Z,2.47
2022-10-18T21:34:22.685Z,2.40
2022-10-18T21:36:50.825Z,2.27
2022-10-18T21:41:52.469Z,2.10
2022-10-18T21:44:20.754Z,1.90
2022-10-18T21:46:49.054Z,1.93
2022-10-18T21:49:17.908Z,2.37
2022-10-18T21:51:46.223Z,2.40
2022-10-18T21:54:16.733Z,2.50
2022-10-18T21:56:46.203Z,2.40
2022-10-18T21:59:14.776Z,2.33
2022-10-18T22:01:44.150Z,2.90
2022-10-18T22:04:21.469Z,2.87
2022-10-18T22:06:50.346Z,3.27
2022-10-18T22:09:19.731Z,3.20
2022-10-18T22:11:53.519Z,2.80
2022-10-18T22:14:22.133Z,2.30
2022-10-18T22:16:50.746Z,2.90
2022-10-18T22:19:18.999Z,2.40
2022-10-18T22:21:47.129Z,2.67
2022-10-18T22:24:15.231Z,2.70
2022-10-18T22:26:44.971Z,2.60
2022-10-18T22:29:16.823Z,2.73
2022-10-18T22:31:48.187Z,2.70
2022-10-18T22:34:19.462Z,2.23
2022-10-18T22:36:47.749Z,2.50
2022-10-18T22:39:16.816Z,2.17
2022-10-18T22:41:46.447Z,2.20
2022-10-18T22:44:16.285Z,3.00
2022-10-18T22:46:44.594Z,2.70
2022-10-18T22:49:13.595Z,2.67
2022-10-18T22:51:41.930Z,2.27
2022-10-18T22:54:10.314Z,2.90
2022-10-18T22:56:38.445Z,2.60
2022-10-18T22:59:06.561Z,2.70
2022-10-18T23:01:36.167Z,3.00
2022-10-18T23:04:04.433Z,3.30
2022-10-18T23:06:34.654Z,2.73
2022-10-18T23:09:07.451Z,2.90
2022-10-18T23:11:37.346Z,2.93
2022-10-18T23:14:07.131Z,2.37
2022-10-18T23:16:37.535Z,2.50
2022-10-18T23:19:06.512Z,2.90
2022-10-18T23:21:35.248Z,2.20
2022-10-18T23:24:03.413Z,2.63
2022-10-18T23:26:31.532Z,2.47
2022-10-18T23:28:59.954Z,2.87
2022-10-18T23:31:30.908Z,2.53
2022-10-18T23:34:02.690Z,2.80
2022-10-18T23:36:32.320Z,2.40
2022-10-18T23:39:00.893Z,2.40
2022-10-18T23:41:29.241Z,2.40
2022-10-18T23:43:57.931Z,2.10
2022-10-18T23:46:26.195Z,2.67
2022-10-18T23:48:54.300Z,2.90
2022-10-18T23:51:23.780Z,2.33
2022-10-18T23:53:51.893Z,2.47
2022-10-18T23:56:20.148Z,2.87
2022-10-18T23:58:48.271Z,2.73
